sensor_id;sensor_type;location;lat;lon;timestamp;P1;durP1;ratioP1;P2;durP2;ratioP2
21810;SDS011;11067;48.788;9.208;2023-03-31T00:02:17;4.90;;;1.77;;
21810;SDS011;11067;48.788;9.208;2023-03-31T00:04:45;4.60;;;1.83;;
21810;SDS011;11067;48.788;9.208;2023-03-31T00:07:16;4.87;;;1.77;;
21810;SDS011;11067;48.788;9.208;2023-03-31T00:09:46;4.45;;;1.60;;
21810;SDS011;11067;48.788;9.208;2023-03-31T00:12:12;6.65;;;2.53;;
21810;SDS011;11067;48.788;9.208;2023-03-31T00:14:39;9.37;;;1.97;;
21810;SDS011;11067;48.788;9.208;2023-03-31T00:17:06;4.35;;;1.65;;
21810;SDS011;11067;48.788;9.208;2023-03-31T00:19:32;5.53;;;2.03;;
21810;SDS011;11067;48.788;9.208;2023-03-31T00:21:58;4.45;;;2.05;;
21810;SDS011;11067;48.788;9.208;2023-03-31T00:24:29;4.03;;;1.98;;
21810;SDS011;11067;48.788;9.208;2023-03-31T00:26:57;6.68;;;1.92;;
21810;SDS011;11067;48.788;9.208;2023-03-31T00:29:23;4.90;;;1.70;;
21810;SDS011;11067;48.788;9.208;2023-03-31T00:31:48;2.70;;;1.77;;
21810;SDS011;11067;48.788;9.208;2023-03-31T00:34:14;3.90;;;1.73;;
21810;SDS011;11067;48.788;9.208;2023-03-31T00:36:39;3.17;;;1.60;;
21810;SDS011;11067;48.788;9.208;2023-03-31T00:39:09;5.32;;;1.70;;
21810;SDS011;11067;48.788;9.208;2023-03-31T00:41:35;5.25;;;1.67;;
21810;SDS011;11067;48.788;9.208;2023-03-31T00:44:13;5.47;;;1.90;;
21810;SDS011;11067;48.788;9.208;2023-03-31T00:46:53;4.57;;;2.38;;
21810;SDS011;11067;48.788;9.208;2023-03-31T00:52:04;3.75;;;1.75;;
21810;SDS011;11067;48.788;9.208;2023-03-31T00:54:33;7.82;;;2.28;;
21810;SDS011;11067;48.788;9.208;2023-03-31T00:57:01;4.13;;;1.63;;
21810;SDS011;11067;48.788;9.208;2023-03-31T00:59:30;7.20;;;1.92;;
21810;SDS011;11067;48.788;9.208;2023-03-31T01:02:00;5.30;;;2.23;;
21810;SDS011;11067;48.788;9.208;2023-03-31T01:04:29;8.77;;;2.80;;
21810;SDS011;11067;48.788;9.208;2023-03-31T01:07:33;7.20;;;2.45;;
21810;SDS011;11067;48.788;9.208;2023-03-31T01:09:56;4.90;;;2.15;;
21810;SDS011;11067;48.788;9.208;2023-03-31T01:12:24;8.45;;;2.28;;
21810;SDS011;11067;48.788;9.208;2023-03-31T01:14:50;4.05;;;1.98;;
21810;SDS011;11067;48.788;9.208;2023-03-31T01:17:17;3.60;;;1.90;;
21810;SDS011;11067;48.788;9.208;2023-03-31T01:20:31;5.90;;;1.80;;
21810;SDS011;11067;48.788;9.208;2023-03-31T01:39:59;5.20;;;2.10;;
21810;SDS011;11067;48.788;9.208;2023-03-31T01:42:43;6.15;;;2.05;;
21810;SDS011;11067;48.788;9.208;2023-03-31T01:48:49;5.80;;;1.93;;
21810;SDS011;11067;48.788;9.208;2023-03-31T01:51:30;4.45;;;1.80;;
21810;SDS011;11067;48.788;9.208;2023-03-31T01:54:14;8.80;;;1.95;;
21810;SDS011;11067;48.788;9.208;2023-03-31T01:56:56;4.17;;;1.90;;
21810;SDS011;11067;48.788;9.208;2023-03-31T01:59:26;4.60;;;1.85;;
21810;SDS011;11067;48.788;9.208;2023-03-31T02:02:03;7.03;;;1.88;;
21810;SDS011;11067;48.788;9.208;2023-03-31T02:04:36;6.35;;;1.67;;
21810;SDS011;11067;48.788;9.208;2023-03-31T02:07:17;3.72;;;1.60;;
21810;SDS011;11067;48.788;9.208;2023-03-31T02:09:49;11.10;;;1.60;;
21810;SDS011;11067;48.788;9.208;2023-03-31T02:12:20;4.95;;;2.00;;
21810;SDS011;11067;48.788;9.208;2023-03-31T02:14:48;3.95;;;1.45;;
21810;SDS011;11067;48.788;9.208;2023-03-31T02:17:18;3.45;;;1.50;;
21810;SDS011;11067;48.788;9.208;2023-03-31T02:19:47;2.55;;;1.45;;
21810;SDS011;11067;48.788;9.208;2023-03-31T02:22:16;3.58;;;1.73;;
21810;SDS011;11067;48.788;9.208;2023-03-31T02:24:45;9.13;;;1.90;;
21810;SDS011;11067;48.788;9.208;2023-03-31T02:27:22;2.85;;;1.67;;
21810;SDS011;11067;48.788;9.208;2023-03-31T02:29:50;4.97;;;2.65;;
21810;SDS011;11067;48.788;9.208;2023-03-31T02:32:21;4.70;;;1.83;;
21810;SDS011;11067;48.788;9.208;2023-03-31T02:34:56;3.25;;;1.55;;
21810;SDS011;11067;48.788;9.208;2023-03-31T02:37:22;3.30;;;1.50;;
21810;SDS011;11067;48.788;9.208;2023-03-31T02:39:49;7.63;;;2.03;;
21810;SDS011;11067;48.788;9.208;2023-03-31T02:42:18;6.10;;;2.17;;
21810;SDS011;11067;48.788;9.208;2023-03-31T02:44:44;2.83;;;1.80;;
21810;SDS011;11067;48.788;9.208;2023-03-31T02:47:11;5.47;;;1.85;;
21810;SDS011;11067;48.788;9.208;2023-03-31T02:49:38;6.78;;;2.17;;
21810;SDS011;11067;48.788;9.208;2023-03-31T03:04:08;5.20;;;2.00;;
21810;SDS011;11067;48.788;9.208;2023-03-31T03:07:00;5.77;;;2.13;;
21810;SDS011;11067;48.788;9.208;2023-03-31T03:17:52;3.72;;;1.85;;
21810;SDS011;11067;48.788;9.208;2023-03-31T03:20:20;5.55;;;2.17;;
21810;SDS011;11067;48.788;9.208;2023-03-31T03:22:46;5.17;;;1.97;;
21810;SDS011;11067;48.788;9.208;2023-03-31T03:25:12;4.77;;;2.10;;
21810;SDS011;11067;48.788;9.208;2023-03-31T03:27:41;4.90;;;1.98;;
21810;SDS011;11067;48.788;9.208;2023-03-31T03:30:08;6.35;;;2.28;;
21810;SDS011;11067;48.788;9.208;2023-03-31T03:32:35;6.10;;;2.15;;
21810;SDS011;11067;48.788;9.208;2023-03-31T03:35:02;5.57;;;2.38;;
21810;SDS011;11067;48.788;9.208;2023-03-31T03:37:29;8.33;;;2.43;;
21810;SDS011;11067;48.788;9.208;2023-03-31T03:39:54;4.20;;;2.00;;
21810;SDS011;11067;48.788;9.208;2023-03-31T03:42:20;3.73;;;2.10;;
21810;SDS011;11067;48.788;9.208;2023-03-31T03:44:46;4.40;;;2.10;;
21810;SDS011;11067;48.788;9.208;2023-03-31T03:47:11;4.78;;;2.42;;
21810;SDS011;11067;48.788;9.208;2023-03-31T03:49:37;4.40;;;2.13;;
21810;SDS011;11067;48.788;9.208;2023-03-31T03:52:03;4.68;;;2.08;;
21810;SDS011;11067;48.788;9.208;2023-03-31T03:54:28;5.53;;;2.22;;
21810;SDS011;11067;48.788;9.208;2023-03-31T03:56:54;4.60;;;2.20;;
21810;SDS011;11067;48.788;9.208;2023-03-31T03:59:19;5.60;;;2.50;;
21810;SDS011;11067;48.788;9.208;2023-03-31T04:01:45;4.33;;;2.20;;
21810;SDS011;11067;48.788;9.208;2023-03-31T04:04:11;6.18;;;2.35;;
21810;SDS011;11067;48.788;9.208;2023-03-31T04:06:36;3.03;;;2.00;;
21810;SDS011;11067;48.788;9.208;2023-03-31T04:09:02;3.50;;;2.10;;
21810;SDS011;11067;48.788;9.208;2023-03-31T04:11:28;3.28;;;2.10;;
21810;SDS011;11067;48.788;9.208;2023-03-31T04:13:54;4.40;;;2.28;;
21810;SDS011;11067;48.788;9.208;2023-03-31T04:16:20;6.53;;;2.65;;
21810;SDS011;11067;48.788;9.208;2023-03-31T04:18:46;4.82;;;2.15;;
21810;SDS011;11067;48.788;9.208;2023-03-31T04:21:12;5.72;;;2.88;;
21810;SDS011;11067;48.788;9.208;2023-03-31T04:23:46;4.85;;;2.20;;
21810;SDS011;11067;48.788;9.208;2023-03-31T04:26:13;7.55;;;2.70;;
21810;SDS011;11067;48.788;9.208;2023-03-31T04:28:41;8.55;;;3.05;;
21810;SDS011;11067;48.788;9.208;2023-03-31T04:31:10;5.13;;;2.70;;
21810;SDS011;11067;48.788;9.208;2023-03-31T04:33:48;6.30;;;2.97;;
21810;SDS011;11067;48.788;9.208;2023-03-31T04:36:15;5.97;;;3.17;;
21810;SDS011;11067;48.788;9.208;2023-03-31T04:38:44;5.95;;;3.22;;
21810;SDS011;11067;48.788;9.208;2023-03-31T04:41:15;7.13;;;3.30;;
21810;SDS011;11067;48.788;9.208;2023-03-31T04:43:41;11.10;;;3.77;;
21810;SDS011;11067;48.788;9.208;2023-03-31T04:46:07;6.53;;;3.13;;
21810;SDS011;11067;48.788;9.208;2023-03-31T04:48:32;7.57;;;3.37;;
21810;SDS011;11067;48.788;9.208;2023-03-31T04:50:58;7.43;;;2.90;;
21810;SDS011;11067;48.788;9.208;2023-03-31T04:53:24;4.90;;;2.95;;
21810;SDS011;11067;48.788;9.208;2023-03-31T04:55:50;6.50;;;3.33;;
21810;SDS011;11067;48.788;9.208;2023-03-31T04:58:16;7.40;;;3.00;;
21810;SDS011;11067;48.788;9.208;2023-03-31T05:00:42;8.87;;;3.30;;
21810;SDS011;11067;48.788;9.208;2023-03-31T05:03:08;5.67;;;2.93;;
21810;SDS011;11067;48.788;9.208;2023-03-31T05:05:33;5.43;;;2.70;;
21810;SDS011;11067;48.788;9.208;2023-03-31T05:07:59;7.03;;;3.17;;
21810;SDS011;11067;48.788;9.208;2023-03-31T05:10:25;6.97;;;3.70;;
21810;SDS011;11067;48.788;9.208;2023-03-31T05:12:51;7.47;;;2.80;;
21810;SDS011;11067;48.788;9.208;2023-03-31T05:15:16;5.97;;;3.03;;
21810;SDS011;11067;48.788;9.208;2023-03-31T05:17:42;9.80;;;3.40;;
21810;SDS011;11067;48.788;9.208;2023-03-31T05:20:08;4.55;;;2.80;;
21810;SDS011;11067;48.788;9.208;2023-03-31T05:22:35;6.07;;;3.30;;
21810;SDS011;11067;48.788;9.208;2023-03-31T05:25:01;11.27;;;3.22;;
21810;SDS011;11067;48.788;9.208;2023-03-31T05:27:28;7.35;;;3.30;;
21810;SDS011;11067;48.788;9.208;2023-03-31T05:29:54;8.07;;;3.13;;
21810;SDS011;11067;48.788;9.208;2023-03-31T05:32:20;7.97;;;3.43;;
21810;SDS011;11067;48.788;9.208;2023-03-31T05:34:45;7.13;;;3.30;;
21810;SDS011;11067;48.788;9.208;2023-03-31T05:37:11;7.55;;;3.65;;
21810;SDS011;11067;48.788;9.208;2023-03-31T05:39:37;9.30;;;3.45;;
21810;SDS011;11067;48.788;9.208;2023-03-31T05:42:02;7.28;;;3.90;;
21810;SDS011;11067;48.788;9.208;2023-03-31T05:44:29;33.58;;;18.25;;
21810;SDS011;11067;48.788;9.208;2023-03-31T05:46:55;9.75;;;4.00;;
21810;SDS011;11067;48.788;9.208;2023-03-31T05:49:21;9.52;;;4.05;;
21810;SDS011;11067;48.788;9.208;2023-03-31T05:51:46;10.65;;;4.65;;
21810;SDS011;11067;48.788;9.208;2023-03-31T05:54:12;11.67;;;4.60;;
21810;SDS011;11067;48.788;9.208;2023-03-31T05:56:38;8.53;;;3.87;;
21810;SDS011;11067;48.788;9.208;2023-03-31T05:59:04;12.40;;;3.80;;
21810;SDS011;11067;48.788;9.208;2023-03-31T06:01:29;10.07;;;4.30;;
21810;SDS011;11067;48.788;9.208;2023-03-31T06:03:55;9.63;;;3.60;;
21810;SDS011;11067;48.788;9.208;2023-03-31T06:06:21;7.47;;;3.50;;
21810;SDS011;11067;48.788;9.208;2023-03-31T06:08:47;11.07;;;4.38;;
21810;SDS011;11067;48.788;9.208;2023-03-31T06:11:14;7.05;;;4.00;;
21810;SDS011;11067;48.788;9.208;2023-03-31T06:13:43;9.52;;;4.60;;
21810;SDS011;11067;48.788;9.208;2023-03-31T06:16:09;7.53;;;4.15;;
21810;SDS011;11067;48.788;9.208;2023-03-31T06:18:36;7.85;;;4.00;;
21810;SDS011;11067;48.788;9.208;2023-03-31T06:21:02;12.33;;;4.43;;
21810;SDS011;11067;48.788;9.208;2023-03-31T06:23:28;10.55;;;4.25;;
21810;SDS011;11067;48.788;9.208;2023-03-31T06:25:53;12.80;;;4.67;;
21810;SDS011;11067;48.788;9.208;2023-03-31T06:28:23;6.32;;;4.10;;
21810;SDS011;11067;48.788;9.208;2023-03-31T06:30:48;10.63;;;4.63;;
21810;SDS011;11067;48.788;9.208;2023-03-31T06:33:14;6.78;;;3.80;;
21810;SDS011;11067;48.788;9.208;2023-03-31T06:35:40;9.00;;;4.10;;
21810;SDS011;11067;48.788;9.208;2023-03-31T06:38:06;10.07;;;4.50;;
21810;SDS011;11067;48.788;9.208;2023-03-31T06:40:32;9.85;;;4.63;;
21810;SDS011;11067;48.788;9.208;2023-03-31T06:42:58;10.60;;;5.13;;
21810;SDS011;11067;48.788;9.208;2023-03-31T06:45:24;11.20;;;5.03;;
21810;SDS011;11067;48.788;9.208;2023-03-31T06:47:49;8.10;;;4.23;;
21810;SDS011;11067;48.788;9.208;2023-03-31T06:50:15;9.00;;;4.40;;
21810;SDS011;11067;48.788;9.208;2023-03-31T06:52:41;11.27;;;5.23;;
21810;SDS011;11067;48.788;9.208;2023-03-31T06:55:06;9.10;;;4.28;;
21810;SDS011;11067;48.788;9.208;2023-03-31T06:57:33;10.05;;;4.45;;
21810;SDS011;11067;48.788;9.208;2023-03-31T06:59:59;9.07;;;4.15;;
21810;SDS011;11067;48.788;9.208;2023-03-31T07:02:25;10.57;;;4.82;;
21810;SDS011;11067;48.788;9.208;2023-03-31T07:04:50;8.38;;;4.72;;
21810;SDS011;11067;48.788;9.208;2023-03-31T07:07:16;9.05;;;4.43;;
21810;SDS011;11067;48.788;9.208;2023-03-31T07:09:41;9.70;;;4.53;;
21810;SDS011;11067;48.788;9.208;2023-03-31T07:12:07;7.03;;;4.03;;
21810;SDS011;11067;48.788;9.208;2023-03-31T07:14:34;6.80;;;3.97;;
21810;SDS011;11067;48.788;9.208;2023-03-31T07:17:00;5.80;;;3.88;;
21810;SDS011;11067;48.788;9.208;2023-03-31T07:19:26;5.72;;;3.75;;
21810;SDS011;11067;48.788;9.208;2023-03-31T07:21:51;9.10;;;3.60;;
21810;SDS011;11067;48.788;9.208;2023-03-31T07:24:17;9.10;;;3.22;;
21810;SDS011;11067;48.788;9.208;2023-03-31T07:26:43;4.20;;;2.70;;
21810;SDS011;11067;48.788;9.208;2023-03-31T07:29:09;5.43;;;2.55;;
21810;SDS011;11067;48.788;9.208;2023-03-31T07:31:34;5.03;;;2.60;;
21810;SDS011;11067;48.788;9.208;2023-03-31T07:34:00;4.23;;;3.20;;
21810;SDS011;11067;48.788;9.208;2023-03-31T07:36:26;3.38;;;2.40;;
21810;SDS011;11067;48.788;9.208;2023-03-31T07:38:52;6.25;;;2.40;;
21810;SDS011;11067;48.788;9.208;2023-03-31T07:41:19;3.60;;;2.10;;
21810;SDS011;11067;48.788;9.208;2023-03-31T07:43:45;4.13;;;2.20;;
21810;SDS011;11067;48.788;9.208;2023-03-31T07:46:16;4.57;;;2.10;;
21810;SDS011;11067;48.788;9.208;2023-03-31T07:48:43;3.92;;;1.88;;
21810;SDS011;11067;48.788;9.208;2023-03-31T07:51:10;3.35;;;1.77;;
21810;SDS011;11067;48.788;9.208;2023-03-31T07:53:37;4.68;;;1.88;;
21810;SDS011;11067;48.788;9.208;2023-03-31T07:56:02;2.10;;;1.37;;
21810;SDS011;11067;48.788;9.208;2023-03-31T07:58:28;1.77;;;1.38;;
21810;SDS011;11067;48.788;9.208;2023-03-31T08:00:53;2.97;;;1.50;;
21810;SDS011;11067;48.788;9.208;2023-03-31T08:03:19;3.30;;;1.35;;
21810;SDS011;11067;48.788;9.208;2023-03-31T08:05:45;1.50;;;1.10;;
21810;SDS011;11067;48.788;9.208;2023-03-31T08:08:10;1.70;;;1.20;;
21810;SDS011;11067;48.788;9.208;2023-03-31T08:10:36;2.42;;;1.30;;
21810;SDS011;11067;48.788;9.208;2023-03-31T08:13:01;1.47;;;1.00;;
21810;SDS011;11067;48.788;9.208;2023-03-31T08:15:27;2.23;;;0.93;;
21810;SDS011;11067;48.788;9.208;2023-03-31T08:17:53;2.55;;;1.13;;
21810;SDS011;11067;48.788;9.208;2023-03-31T08:20:18;2.10;;;1.10;;
21810;SDS011;11067;48.788;9.208;2023-03-31T08:22:44;1.85;;;0.85;;
21810;SDS011;11067;48.788;9.208;2023-03-31T08:25:10;3.17;;;0.98;;
21810;SDS011;11067;48.788;9.208;2023-03-31T08:27:36;3.13;;;1.00;;
21810;SDS011;11067;48.788;9.208;2023-03-31T08:30:04;1.60;;;0.90;;
21810;SDS011;11067;48.788;9.208;2023-03-31T08:32:31;2.25;;;1.00;;
21810;SDS011;11067;48.788;9.208;2023-03-31T08:34:58;2.20;;;1.00;;
21810;SDS011;11067;48.788;9.208;2023-03-31T08:37:23;2.23;;;0.90;;
21810;SDS011;11067;48.788;9.208;2023-03-31T08:39:49;1.10;;;0.87;;
21810;SDS011;11067;48.788;9.208;2023-03-31T08:42:17;1.33;;;0.80;;
21810;SDS011;11067;48.788;9.208;2023-03-31T08:47:34;3.03;;;1.43;;
21810;SDS011;11067;48.788;9.208;2023-03-31T08:50:12;3.10;;;1.40;;
21810;SDS011;11067;48.788;9.208;2023-03-31T08:52:41;1.40;;;1.00;;
21810;SDS011;11067;48.788;9.208;2023-03-31T08:55:21;5.83;;;1.20;;
21810;SDS011;11067;48.788;9.208;2023-03-31T09:00:23;2.40;;;1.08;;
21810;SDS011;11067;48.788;9.208;2023-03-31T09:05:33;2.72;;;0.98;;
21810;SDS011;11067;48.788;9.208;2023-03-31T09:10:58;1.30;;;1.00;;
21810;SDS011;11067;48.788;9.208;2023-03-31T09:19:15;2.17;;;1.00;;
21810;SDS011;11067;48.788;9.208;2023-03-31T09:21:48;3.42;;;1.23;;
21810;SDS011;11067;48.788;9.208;2023-03-31T09:24:18;2.67;;;1.10;;
21810;SDS011;11067;48.788;9.208;2023-03-31T09:26:51;3.30;;;1.13;;
21810;SDS011;11067;48.788;9.208;2023-03-31T09:29:23;2.17;;;1.17;;
21810;SDS011;11067;48.788;9.208;2023-03-31T09:31:59;2.13;;;0.90;;
21810;SDS011;11067;48.788;9.208;2023-03-31T09:34:29;3.45;;;1.00;;
21810;SDS011;11067;48.788;9.208;2023-03-31T09:36:57;2.13;;;0.77;;
21810;SDS011;11067;48.788;9.208;2023-03-31T09:39:23;2.78;;;1.17;;
21810;SDS011;11067;48.788;9.208;2023-03-31T09:41:49;2.20;;;1.13;;
21810;SDS011;11067;48.788;9.208;2023-03-31T09:46:50;1.52;;;1.02;;
21810;SDS011;11067;48.788;9.208;2023-03-31T09:49:20;2.45;;;1.20;;
21810;SDS011;11067;48.788;9.208;2023-03-31T09:51:58;4.93;;;1.43;;
21810;SDS011;11067;48.788;9.208;2023-03-31T09:54:35;3.47;;;1.20;;
21810;SDS011;11067;48.788;9.208;2023-03-31T09:57:13;3.38;;;1.33;;
21810;SDS011;11067;48.788;9.208;2023-03-31T09:59:46;3.40;;;1.00;;
21810;SDS011;11067;48.788;9.208;2023-03-31T10:02:36;2.75;;;1.10;;
21810;SDS011;11067;48.788;9.208;2023-03-31T10:05:04;3.72;;;1.40;;
21810;SDS011;11067;48.788;9.208;2023-03-31T10:07:32;4.10;;;1.37;;
21810;SDS011;11067;48.788;9.208;2023-03-31T10:09:58;7.13;;;1.23;;
21810;SDS011;11067;48.788;9.208;2023-03-31T10:12:25;6.68;;;1.58;;
21810;SDS011;11067;48.788;9.208;2023-03-31T10:14:54;3.97;;;1.40;;
21810;SDS011;11067;48.788;9.208;2023-03-31T10:17:35;3.88;;;1.30;;
21810;SDS011;11067;48.788;9.208;2023-03-31T10:20:50;4.17;;;1.30;;
21810;SDS011;11067;48.788;9.208;2023-03-31T10:23:05;2.50;;;1.27;;
21810;SDS011;11067;48.788;9.208;2023-03-31T10:25:40;4.33;;;1.50;;
21810;SDS011;11067;48.788;9.208;2023-03-31T10:28:09;1.98;;;1.10;;
21810;SDS011;11067;48.788;9.208;2023-03-31T10:30:39;3.13;;;1.17;;
21810;SDS011;11067;48.788;9.208;2023-03-31T10:33:16;3.10;;;1.50;;
21810;SDS011;11067;48.788;9.208;2023-03-31T10:35:49;6.75;;;1.60;;
21810;SDS011;11067;48.788;9.208;2023-03-31T10:38:23;4.70;;;1.20;;
21810;SDS011;11067;48.788;9.208;2023-03-31T10:40:54;3.67;;;1.40;;
21810;SDS011;11067;48.788;9.208;2023-03-31T10:43:55;2.08;;;1.08;;
21810;SDS011;11067;48.788;9.208;2023-03-31T10:46:16;3.60;;;1.33;;
21810;SDS011;11067;48.788;9.208;2023-03-31T10:48:42;2.70;;;0.80;;
21810;SDS011;11067;48.788;9.208;2023-03-31T10:51:11;3.55;;;1.10;;
21810;SDS011;11067;48.788;9.208;2023-03-31T10:53:50;3.03;;;1.50;;
21810;SDS011;11067;48.788;9.208;2023-03-31T10:59:17;2.05;;;0.90;;
21810;SDS011;11067;48.788;9.208;2023-03-31T11:05:17;3.10;;;1.10;;
21810;SDS011;11067;48.788;9.208;2023-03-31T11:08:00;4.10;;;1.30;;
21810;SDS011;11067;48.788;9.208;2023-03-31T11:16:29;2.78;;;1.00;;
21810;SDS011;11067;48.788;9.208;2023-03-31T11:21:45;4.60;;;1.10;;
21810;SDS011;11067;48.788;9.208;2023-03-31T11:40:47;2.42;;;0.55;;
21810;SDS011;11067;48.788;9.208;2023-03-31T11:43:39;0.80;;;0.50;;
21810;SDS011;11067;48.788;9.208;2023-03-31T11:46:21;1.63;;;0.68;;
21810;SDS011;11067;48.788;9.208;2023-03-31T11:48:58;2.22;;;0.57;;
21810;SDS011;11067;48.788;9.208;2023-03-31T11:51:27;1.20;;;0.47;;
21810;SDS011;11067;48.788;9.208;2023-03-31T11:54:01;0.53;;;0.50;;
21810;SDS011;11067;48.788;9.208;2023-03-31T11:56:36;1.85;;;0.50;;
21810;SDS011;11067;48.788;9.208;2023-03-31T11:59:04;1.30;;;0.50;;
21810;SDS011;11067;48.788;9.208;2023-03-31T12:06:50;1.83;;;0.65;;
21810;SDS011;11067;48.788;9.208;2023-03-31T12:09:26;1.23;;;0.40;;
21810;SDS011;11067;48.788;9.208;2023-03-31T12:12:07;1.27;;;0.80;;
21810;SDS011;11067;48.788;9.208;2023-03-31T12:17:27;0.90;;;0.50;;
21810;SDS011;11067;48.788;9.208;2023-03-31T12:19:59;1.57;;;0.60;;
21810;SDS011;11067;48.788;9.208;2023-03-31T12:22:38;1.50;;;0.57;;
21810;SDS011;11067;48.788;9.208;2023-03-31T12:25:12;1.00;;;0.75;;
21810;SDS011;11067;48.788;9.208;2023-03-31T12:27:42;0.60;;;0.50;;
21810;SDS011;11067;48.788;9.208;2023-03-31T12:33:03;1.30;;;0.80;;
21810;SDS011;11067;48.788;9.208;2023-03-31T12:38:15;0.80;;;0.73;;
21810;SDS011;11067;48.788;9.208;2023-03-31T12:41:13;2.13;;;0.60;;
21810;SDS011;11067;48.788;9.208;2023-03-31T12:57:48;1.70;;;0.70;;
21810;SDS011;11067;48.788;9.208;2023-03-31T13:00:24;1.23;;;0.60;;
21810;SDS011;11067;48.788;9.208;2023-03-31T13:03:34;0.98;;;0.60;;
21810;SDS011;11067;48.788;9.208;2023-03-31T13:06:00;0.90;;;0.60;;
21810;SDS011;11067;48.788;9.208;2023-03-31T13:11:18;2.13;;;1.00;;
21810;SDS011;11067;48.788;9.208;2023-03-31T13:16:47;2.38;;;0.88;;
21810;SDS011;11067;48.788;9.208;2023-03-31T13:19:30;3.55;;;0.80;;
21810;SDS011;11067;48.788;9.208;2023-03-31T13:21:58;1.80;;;0.60;;
21810;SDS011;11067;48.788;9.208;2023-03-31T13:24:25;3.67;;;0.70;;
21810;SDS011;11067;48.788;9.208;2023-03-31T13:26:53;2.10;;;0.65;;
21810;SDS011;11067;48.788;9.208;2023-03-31T13:29:42;2.05;;;0.60;;
21810;SDS011;11067;48.788;9.208;2023-03-31T13:34:41;3.03;;;0.73;;
21810;SDS011;11067;48.788;9.208;2023-03-31T13:40:04;1.27;;;0.35;;
21810;SDS011;11067;48.788;9.208;2023-03-31T13:42:52;0.73;;;0.40;;
21810;SDS011;11067;48.788;9.208;2023-03-31T13:45:49;1.67;;;0.40;;
21810;SDS011;11067;48.788;9.208;2023-03-31T13:48:43;1.00;;;0.50;;
21810;SDS011;11067;48.788;9.208;2023-03-31T14:07:14;1.75;;;0.30;;
21810;SDS011;11067;48.788;9.208;2023-03-31T14:09:44;0.77;;;0.50;;
21810;SDS011;11067;48.788;9.208;2023-03-31T14:12:29;2.05;;;0.70;;
21810;SDS011;11067;48.788;9.208;2023-03-31T14:14:55;0.60;;;0.50;;
21810;SDS011;11067;48.788;9.208;2023-03-31T14:17:25;1.63;;;0.77;;
21810;SDS011;11067;48.788;9.208;2023-03-31T14:20:19;1.50;;;0.63;;
21810;SDS011;11067;48.788;9.208;2023-03-31T14:23:06;2.70;;;0.70;;
21810;SDS011;11067;48.788;9.208;2023-03-31T14:25:52;1.08;;;0.43;;
21810;SDS011;11067;48.788;9.208;2023-03-31T14:31:25;1.35;;;0.40;;
21810;SDS011;11067;48.788;9.208;2023-03-31T14:37:32;0.85;;;0.45;;
21810;SDS011;11067;48.788;9.208;2023-03-31T14:39:51;2.70;;;0.50;;
21810;SDS011;11067;48.788;9.208;2023-03-31T14:42:22;4.20;;;0.57;;
21810;SDS011;11067;48.788;9.208;2023-03-31T14:44:54;2.25;;;0.70;;
21810;SDS011;11067;48.788;9.208;2023-03-31T14:47:23;0.55;;;0.38;;
21810;SDS011;11067;48.788;9.208;2023-03-31T14:50:00;2.15;;;0.60;;
21810;SDS011;11067;48.788;9.208;2023-03-31T14:52:30;2.10;;;0.60;;
21810;SDS011;11067;48.788;9.208;2023-03-31T14:54:57;2.33;;;0.52;;
21810;SDS011;11067;48.788;9.208;2023-03-31T14:57:28;1.45;;;0.43;;
21810;SDS011;11067;48.788;9.208;2023-03-31T14:59:56;1.40;;;0.70;;
21810;SDS011;11067;48.788;9.208;2023-03-31T15:02:30;1.20;;;0.50;;
21810;SDS011;11067;48.788;9.208;2023-03-31T15:04:58;1.75;;;0.50;;
21810;SDS011;11067;48.788;9.208;2023-03-31T15:07:27;1.65;;;0.70;;
21810;SDS011;11067;48.788;9.208;2023-03-31T15:09:53;0.95;;;0.50;;
21810;SDS011;11067;48.788;9.208;2023-03-31T15:12:19;0.70;;;0.50;;
21810;SDS011;11067;48.788;9.208;2023-03-31T15:14:48;1.33;;;0.70;;
21810;SDS011;11067;48.788;9.208;2023-03-31T15:17:23;1.63;;;0.88;;
21810;SDS011;11067;48.788;9.208;2023-03-31T15:19:53;2.53;;;1.00;;
21810;SDS011;11067;48.788;9.208;2023-03-31T15:22:21;4.93;;;0.90;;
21810;SDS011;11067;48.788;9.208;2023-03-31T15:24:50;1.48;;;0.70;;
21810;SDS011;11067;48.788;9.208;2023-03-31T15:29:54;1.60;;;0.68;;
21810;SDS011;11067;48.788;9.208;2023-03-31T15:32:29;3.30;;;0.80;;
21810;SDS011;11067;48.788;9.208;2023-03-31T15:34:59;3.00;;;0.80;;
21810;SDS011;11067;48.788;9.208;2023-03-31T15:38:02;2.58;;;0.95;;
21810;SDS011;11067;48.788;9.208;2023-03-31T15:40:22;2.67;;;0.70;;
21810;SDS011;11067;48.788;9.208;2023-03-31T15:42:55;1.20;;;0.55;;
21810;SDS011;11067;48.788;9.208;2023-03-31T15:45:34;0.80;;;0.45;;
21810;SDS011;11067;48.788;9.208;2023-03-31T15:48:02;1.15;;;0.47;;
21810;SDS011;11067;48.788;9.208;2023-03-31T15:50:29;1.73;;;1.02;;
21810;SDS011;11067;48.788;9.208;2023-03-31T15:52:57;1.40;;;0.43;;
21810;SDS011;11067;48.788;9.208;2023-03-31T15:55:26;2.17;;;0.70;;
21810;SDS011;11067;48.788;9.208;2023-03-31T15:57:54;2.10;;;0.95;;
21810;SDS011;11067;48.788;9.208;2023-03-31T16:02:56;1.20;;;0.57;;
21810;SDS011;11067;48.788;9.208;2023-03-31T16:05:32;1.70;;;0.75;;
21810;SDS011;11067;48.788;9.208;2023-03-31T16:11:01;2.90;;;0.88;;
21810;SDS011;11067;48.788;9.208;2023-03-31T16:13:32;1.85;;;0.90;;
21810;SDS011;11067;48.788;9.208;2023-03-31T16:15:58;1.27;;;0.70;;
21810;SDS011;11067;48.788;9.208;2023-03-31T16:18:34;1.60;;;0.70;;
21810;SDS011;11067;48.788;9.208;2023-03-31T16:21:04;2.10;;;0.80;;
21810;SDS011;11067;48.788;9.208;2023-03-31T16:23:33;2.27;;;0.77;;
21810;SDS011;11067;48.788;9.208;2023-03-31T16:26:04;2.83;;;1.00;;
21810;SDS011;11067;48.788;9.208;2023-03-31T16:28:34;3.00;;;0.95;;
21810;SDS011;11067;48.788;9.208;2023-03-31T16:31:01;1.23;;;0.47;;
21810;SDS011;11067;48.788;9.208;2023-03-31T16:33:29;0.80;;;0.40;;
21810;SDS011;11067;48.788;9.208;2023-03-31T16:36:15;2.90;;;0.75;;
21810;SDS011;11067;48.788;9.208;2023-03-31T16:38:41;1.92;;;0.60;;
21810;SDS011;11067;48.788;9.208;2023-03-31T16:41:07;3.20;;;1.17;;
21810;SDS011;11067;48.788;9.208;2023-03-31T16:43:32;1.40;;;0.80;;
21810;SDS011;11067;48.788;9.208;2023-03-31T16:45:59;2.50;;;0.90;;
21810;SDS011;11067;48.788;9.208;2023-03-31T16:48:27;2.43;;;0.60;;
21810;SDS011;11067;48.788;9.208;2023-03-31T16:50:54;2.20;;;0.60;;
21810;SDS011;11067;48.788;9.208;2023-03-31T16:53:23;2.08;;;0.70;;
21810;SDS011;11067;48.788;9.208;2023-03-31T16:55:51;4.38;;;1.02;;
21810;SDS011;11067;48.788;9.208;2023-03-31T16:58:17;1.60;;;1.03;;
21810;SDS011;11067;48.788;9.208;2023-03-31T17:00:43;3.30;;;0.70;;
21810;SDS011;11067;48.788;9.208;2023-03-31T17:03:10;1.17;;;0.80;;
21810;SDS011;11067;48.788;9.208;2023-03-31T17:05:37;1.23;;;0.50;;
21810;SDS011;11067;48.788;9.208;2023-03-31T17:08:03;1.20;;;0.50;;
21810;SDS011;11067;48.788;9.208;2023-03-31T17:10:29;0.98;;;0.43;;
21810;SDS011;11067;48.788;9.208;2023-03-31T17:12:54;1.73;;;0.70;;
21810;SDS011;11067;48.788;9.208;2023-03-31T17:15:20;1.40;;;0.60;;
21810;SDS011;11067;48.788;9.208;2023-03-31T17:17:46;3.87;;;0.80;;
21810;SDS011;11067;48.788;9.208;2023-03-31T17:20:12;1.57;;;0.60;;
21810;SDS011;11067;48.788;9.208;2023-03-31T17:22:37;1.30;;;0.63;;
21810;SDS011;11067;48.788;9.208;2023-03-31T17:25:03;2.92;;;0.70;;
21810;SDS011;11067;48.788;9.208;2023-03-31T17:27:29;2.95;;;0.77;;
21810;SDS011;11067;48.788;9.208;2023-03-31T17:29:56;1.65;;;0.70;;
21810;SDS011;11067;48.788;9.208;2023-03-31T17:32:21;0.60;;;0.52;;
21810;SDS011;11067;48.788;9.208;2023-03-31T17:34:47;1.80;;;0.70;;
21810;SDS011;11067;48.788;9.208;2023-03-31T17:37:16;2.45;;;0.77;;
21810;SDS011;11067;48.788;9.208;2023-03-31T17:39:43;2.27;;;0.60;;
21810;SDS011;11067;48.788;9.208;2023-03-31T17:42:09;1.80;;;0.65;;
21810;SDS011;11067;48.788;9.208;2023-03-31T17:44:37;1.40;;;0.82;;
21810;SDS011;11067;48.788;9.208;2023-03-31T17:47:03;1.55;;;0.60;;
21810;SDS011;11067;48.788;9.208;2023-03-31T17:49:28;1.25;;;0.80;;